createdAt,value
2023-05-21T00:01:06.563Z,13.75
2023-05-21T00:03:33.946Z,13.95
2023-05-21T00:06:01.732Z,14.43
2023-05-21T00:08:28.700Z,14.00
2023-05-21T00:10:55.754Z,13.93
2023-05-21T00:13:22.446Z,13.32
2023-05-21T00:15:49.126Z,13.95
2023-05-21T00:18:16.331Z,15.25
2023-05-21T00:20:43.014Z,14.07
2023-05-21T00:23:10.306Z,13.65
2023-05-21T00:25:37.157Z,13.65
2023-05-21T00:28:04.073Z,14.43
2023-05-21T00:30:30.645Z,14.57
2023-05-21T00:32:58.847Z,13.75
2023-05-21T00:35:25.646Z,13.13
2023-05-21T00:37:54.012Z,13.43
2023-05-21T00:40:21.076Z,13.20
2023-05-21T00:42:48.153Z,13.45
2023-05-21T00:45:17.941Z,13.55
2023-05-21T00:47:45.975Z,14.05
2023-05-21T00:50:15.180Z,13.20
2023-05-21T00:52:44.062Z,13.30
2023-05-21T00:55:11.072Z,12.68
2023-05-21T00:57:40.852Z,12.60
2023-05-21T01:00:09.064Z,12.80
2023-05-21T01:02:37.470Z,12.38
2023-05-21T01:05:06.281Z,12.40
2023-05-21T01:07:35.999Z,13.10
2023-05-21T01:10:10.416Z,13.63
2023-05-21T01:12:42.162Z,13.43
2023-05-21T01:15:11.545Z,14.20
2023-05-21T01:17:39.188Z,13.68
2023-05-21T01:20:12.677Z,13.52
2023-05-21T01:22:44.038Z,13.60
2023-05-21T01:25:11.210Z,13.70
2023-05-21T01:27:37.910Z,14.27
2023-05-21T01:30:05.092Z,14.70
2023-05-21T01:32:35.150Z,15.10
2023-05-21T01:35:17.548Z,14.18
2023-05-21T01:37:57.780Z,14.18
2023-05-21T01:40:52.243Z,14.10
2023-05-21T01:43:20.081Z,14.90
2023-05-21T01:45:47.712Z,13.23
2023-05-21T01:48:17.468Z,13.68
2023-05-21T01:50:50.134Z,15.40
2023-05-21T01:53:17.406Z,12.65
2023-05-21T01:55:47.070Z,12.98
2023-05-21T01:58:14.032Z,13.35
2023-05-21T02:00:40.684Z,13.98
2023-05-21T02:03:11.459Z,13.68
2023-05-21T02:05:38.434Z,13.55
2023-05-21T02:08:05.566Z,13.48
2023-05-21T02:10:32.197Z,14.30
2023-05-21T02:12:59.343Z,12.68
2023-05-21T02:15:26.142Z,12.57
2023-05-21T02:17:55.821Z,12.32
2023-05-21T02:20:22.957Z,12.90
2023-05-21T02:22:49.890Z,12.65
2023-05-21T02:25:19.718Z,13.43
2023-05-21T02:27:47.114Z,15.32
2023-05-21T02:30:15.663Z,14.30
2023-05-21T02:32:43.689Z,13.60
2023-05-21T02:35:12.392Z,14.25
2023-05-21T02:37:44.205Z,13.32
2023-05-21T02:40:12.043Z,13.70
2023-05-21T02:42:40.259Z,15.23
2023-05-21T02:45:11.623Z,14.43
2023-05-21T02:47:38.992Z,14.00
2023-05-21T02:50:07.684Z,14.32
2023-05-21T02:52:37.094Z,14.20
2023-05-21T02:55:04.257Z,14.25
2023-05-21T02:57:30.896Z,15.45
2023-05-21T02:59:57.534Z,13.85
2023-05-21T03:02:24.380Z,13.18
2023-05-21T03:04:51.667Z,13.40
2023-05-21T03:07:20.017Z,12.52
2023-05-21T03:09:47.082Z,13.13
2023-05-21T03:12:13.862Z,13.20
2023-05-21T03:14:44.210Z,13.73
2023-05-21T03:17:14.092Z,12.93
2023-05-21T03:19:44.250Z,13.73
2023-05-21T03:22:11.446Z,13.00
2023-05-21T03:24:39.325Z,13.40
2023-05-21T03:27:08.698Z,12.23
2023-05-21T03:29:35.457Z,12.13
2023-05-21T03:32:02.442Z,12.48
2023-05-21T03:34:29.141Z,11.75
2023-05-21T03:36:57.969Z,12.13
2023-05-21T03:39:24.602Z,12.60
2023-05-21T03:41:51.664Z,12.00
2023-05-21T03:44:20.522Z,12.75
2023-05-21T03:46:47.185Z,12.85
2023-05-21T03:49:14.392Z,12.23
2023-05-21T03:51:40.990Z,12.02
2023-05-21T03:54:10.602Z,12.07
2023-05-21T03:56:37.214Z,12.80
2023-05-21T03:59:04.072Z,12.52
2023-05-21T04:01:32.988Z,12.20
2023-05-21T04:03:59.669Z,12.93
2023-05-21T04:06:26.389Z,12.68
2023-05-21T04:08:55.954Z,12.80
2023-05-21T04:11:22.796Z,13.20
2023-05-21T04:13:52.972Z,12.55
2023-05-21T04:16:19.647Z,11.77
2023-05-21T04:18:46.960Z,12.85
2023-05-21T04:21:16.984Z,13.45
2023-05-21T04:23:43.715Z,12.23
2023-05-21T04:26:10.350Z,12.27
2023-05-21T04:28:36.952Z,12.02
2023-05-21T04:31:06.420Z,12.32
2023-05-21T04:33:33.006Z,12.60
2023-05-21T04:35:59.679Z,11.27
2023-05-21T04:38:26.343Z,12.10
2023-05-21T04:40:53.367Z,12.10
2023-05-21T04:43:27.470Z,12.15
2023-05-21T04:45:57.212Z,11.05
2023-05-21T04:48:25.017Z,11.25
2023-05-21T04:50:55.907Z,10.88
2023-05-21T04:53:25.110Z,11.98
2023-05-21T04:55:51.793Z,11.02
2023-05-21T04:58:19.321Z,11.25
2023-05-21T05:00:50.944Z,11.60
2023-05-21T05:03:18.017Z,11.43
2023-05-21T05:05:44.780Z,11.00
2023-05-21T05:08:13.854Z,10.68
2023-05-21T05:10:42.066Z,11.40
2023-05-21T05:13:08.958Z,10.50
2023-05-21T05:15:35.859Z,10.55
2023-05-21T05:18:05.612Z,10.60
2023-05-21T05:20:32.300Z,10.68
2023-05-21T05:22:58.928Z,10.23
2023-05-21T05:25:25.720Z,10.32
2023-05-21T05:27:52.439Z,10.88
2023-05-21T05:30:19.134Z,9.30
2023-05-21T05:32:46.691Z,10.60
2023-05-21T05:35:13.412Z,10.32
2023-05-21T05:37:40.192Z,9.55
2023-05-21T05:40:08.166Z,9.10
2023-05-21T05:42:34.807Z,9.60
2023-05-21T05:45:01.479Z,10.57
2023-05-21T05:47:30.656Z,9.63
2023-05-21T05:49:57.329Z,9.98
2023-05-21T05:52:23.921Z,9.68
2023-05-21T05:54:50.782Z,9.57
2023-05-21T05:57:17.533Z,8.85
2023-05-21T05:59:44.256Z,8.80
2023-05-21T06:02:11.000Z,8.52
2023-05-21T06:04:37.622Z,8.02
2023-05-21T06:07:08.384Z,7.90
2023-05-21T06:09:38.995Z,8.07
2023-05-21T06:12:10.744Z,8.38
2023-05-21T06:14:39.032Z,9.27
2023-05-21T06:17:08.458Z,8.50
2023-05-21T06:19:35.254Z,8.57
2023-05-21T06:22:02.018Z,8.63
2023-05-21T06:24:28.687Z,9.52
2023-05-21T06:26:55.319Z,8.07
2023-05-21T06:29:22.007Z,7.55
2023-05-21T06:31:48.940Z,7.97
2023-05-21T06:34:15.768Z,7.38
2023-05-21T06:36:42.398Z,8.50
2023-05-21T06:39:09.067Z,8.48
2023-05-21T06:41:35.880Z,8.18
2023-05-21T06:44:02.628Z,8.75
2023-05-21T06:46:29.399Z,9.27
2023-05-21T06:48:56.122Z,8.73
2023-05-21T06:51:22.918Z,8.48
2023-05-21T06:53:49.656Z,8.77
2023-05-21T06:56:16.303Z,8.50
2023-05-21T06:58:43.057Z,8.13
2023-05-21T07:01:09.707Z,7.97
2023-05-21T07:03:36.778Z,7.90
2023-05-21T07:06:03.634Z,7.53
2023-05-21T07:08:30.371Z,7.72
2023-05-21T07:10:57.002Z,7.68
2023-05-21T07:13:23.639Z,7.30
2023-05-21T07:15:50.320Z,7.88
2023-05-21T07:18:17.029Z,7.55
2023-05-21T07:20:46.686Z,7.60
2023-05-21T07:23:13.320Z,7.63
2023-05-21T07:25:42.264Z,7.05
2023-05-21T07:28:08.976Z,7.38
2023-05-21T07:30:35.658Z,7.35
2023-05-21T07:33:04.354Z,6.67
2023-05-21T07:35:31.593Z,7.07
2023-05-21T07:37:58.321Z,6.53
2023-05-21T07:40:27.490Z,6.63
2023-05-21T07:42:54.134Z,7.60
2023-05-21T07:45:20.931Z,7.60
2023-05-21T07:47:47.673Z,6.75
2023-05-21T07:50:15.029Z,7.10
2023-05-21T07:52:41.774Z,7.32
2023-05-21T07:55:10.168Z,6.68
2023-05-21T07:57:37.006Z,6.43
2023-05-21T08:00:09.752Z,7.07
2023-05-21T08:02:36.731Z,6.45
2023-05-21T08:05:06.995Z,6.65
2023-05-21T08:07:33.716Z,6.05
2023-05-21T08:10:02.321Z,5.05
2023-05-21T08:12:29.621Z,6.20
2023-05-21T08:14:58.257Z,6.38
2023-05-21T08:17:25.121Z,6.47
2023-05-21T08:19:51.912Z,6.55
2023-05-21T08:22:18.615Z,6.15
2023-05-21T08:24:45.231Z,5.80
2023-05-21T08:27:11.920Z,6.07
2023-05-21T08:29:38.532Z,6.00
2023-05-21T08:32:05.793Z,6.03
2023-05-21T08:34:32.548Z,6.05
2023-05-21T08:36:59.135Z,6.22
2023-05-21T08:39:26.025Z,6.72
2023-05-21T08:42:02.901Z,6.20
2023-05-21T08:44:34.013Z,6.07
2023-05-21T08:47:04.087Z,6.22
2023-05-21T08:49:36.806Z,5.90
2023-05-21T08:52:04.902Z,6.40
2023-05-21T08:54:31.652Z,7.18
2023-05-21T08:57:02.509Z,5.63
2023-05-21T08:59:32.294Z,5.72
2023-05-21T09:02:02.157Z,6.25
2023-05-21T09:04:29.273Z,5.67
2023-05-21T09:06:58.055Z,6.35
2023-05-21T09:09:49.876Z,5.80
2023-05-21T09:12:16.916Z,6.20
2023-05-21T09:14:43.732Z,5.72
2023-05-21T09:17:15.953Z,5.85
2023-05-21T09:20:17.647Z,6.38
2023-05-21T09:22:46.253Z,6.28
2023-05-21T09:25:15.516Z,6.50
2023-05-21T09:27:42.350Z,5.70
2023-05-21T09:30:14.591Z,6.05
2023-05-21T09:32:41.909Z,5.63
2023-05-21T09:35:13.932Z,6.80
2023-05-21T09:37:44.069Z,6.20
2023-05-21T09:40:15.338Z,5.60
2023-05-21T09:42:45.591Z,5.28
2023-05-21T09:45:18.887Z,5.72
2023-05-21T09:47:46.434Z,5.47
2023-05-21T09:50:19.960Z,6.00
2023-05-21T09:52:47.288Z,5.55
2023-05-21T09:55:17.873Z,5.70
2023-05-21T09:57:48.057Z,5.82
2023-05-21T10:00:23.188Z,5.75
2023-05-21T10:02:54.680Z,6.10
2023-05-21T10:05:26.161Z,5.78
2023-05-21T10:07:56.308Z,5.85
2023-05-21T10:10:23.896Z,5.68
2023-05-21T10:13:00.234Z,5.72
2023-05-21T10:15:28.609Z,5.60
2023-05-21T10:17:56.495Z,5.82
2023-05-21T10:20:23.522Z,4.90
2023-05-21T10:22:50.844Z,5.65
2023-05-21T10:25:17.668Z,5.40
2023-05-21T10:27:46.290Z,5.47
2023-05-21T10:30:14.343Z,5.47
2023-05-21T10:32:44.325Z,5.47
2023-05-21T10:35:12.946Z,6.10
2023-05-21T10:37:40.404Z,5.33
2023-05-21T10:40:07.728Z,5.93
2023-05-21T10:42:34.257Z,6.18
2023-05-21T10:45:28.775Z,6.25
2023-05-21T10:48:33.472Z,6.30
2023-05-21T10:51:45.351Z,6.05
2023-05-21T10:54:36.218Z,6.20
2023-05-21T10:57:08.413Z,6.47
2023-05-21T10:59:47.288Z,6.43
2023-05-21T11:02:18.650Z,6.40
2023-05-21T11:04:45.767Z,5.82
2023-05-21T11:07:12.872Z,6.00
2023-05-21T11:09:39.568Z,5.82
2023-05-21T11:12:08.229Z,6.35
2023-05-21T11:14:40.493Z,5.65
2023-05-21T11:17:12.658Z,6.45
2023-05-21T11:19:47.145Z,5.78
2023-05-21T11:22:22.830Z,5.95
2023-05-21T11:24:51.385Z,5.93
2023-05-21T11:27:41.424Z,5.80
2023-05-21T11:30:10.486Z,5.93
2023-05-21T11:32:39.188Z,5.73
2023-05-21T11:35:06.908Z,5.70
2023-05-21T11:37:34.966Z,5.90
2023-05-21T11:40:23.924Z,5.72
2023-05-21T11:42:52.854Z,5.35
2023-05-21T11:45:21.138Z,5.75
2023-05-21T11:47:49.469Z,5.90
2023-05-21T11:50:17.485Z,5.72
2023-05-21T11:52:45.434Z,5.70
2023-05-21T11:55:21.177Z,5.47
2023-05-21T11:57:48.802Z,6.70
2023-05-21T12:00:16.860Z,6.03
2023-05-21T12:02:50.348Z,5.55
2023-05-21T12:05:17.396Z,5.88
2023-05-21T12:07:48.708Z,5.47
2023-05-21T12:10:21.220Z,6.00
2023-05-21T12:12:54.683Z,5.90
2023-05-21T12:15:22.835Z,5.15
2023-05-21T12:17:52.811Z,5.47
2023-05-21T12:20:20.120Z,5.03
2023-05-21T12:22:49.076Z,5.40
2023-05-21T12:25:20.200Z,5.95
2023-05-21T12:27:58.018Z,4.95
2023-05-21T12:30:26.088Z,5.00
2023-05-21T12:32:54.009Z,5.25
2023-05-21T12:35:23.063Z,5.45
2023-05-21T12:37:53.269Z,4.77
2023-05-21T12:40:20.120Z,4.68
2023-05-21T12:42:46.874Z,5.03
2023-05-21T12:45:14.136Z,4.88
2023-05-21T12:47:40.933Z,5.18
2023-05-21T12:50:14.125Z,5.22
2023-05-21T12:52:43.223Z,5.20
2023-05-21T12:55:17.121Z,4.97
2023-05-21T12:57:44.038Z,5.70
2023-05-21T13:00:11.481Z,5.30
2023-05-21T13:02:43.870Z,4.72
2023-05-21T13:05:21.341Z,4.17
2023-05-21T13:07:48.247Z,4.30
2023-05-21T13:10:18.624Z,4.20
2023-05-21T13:12:50.118Z,4.22
2023-05-21T13:15:17.023Z,3.78
2023-05-21T13:17:48.475Z,3.78
2023-05-21T13:20:21.890Z,3.47
2023-05-21T13:22:51.128Z,2.20
2023-05-21T13:25:21.328Z,1.90
2023-05-21T13:27:49.841Z,2.20
2023-05-21T13:30:16.726Z,2.88
2023-05-21T13:32:43.613Z,2.28
2023-05-21T13:35:12.105Z,1.80
2023-05-21T13:37:40.354Z,1.83
2023-05-21T13:40:17.026Z,2.00
2023-05-21T13:42:48.609Z,2.00
2023-05-21T13:45:18.090Z,2.10
2023-05-21T13:47:46.051Z,2.80
2023-05-21T13:50:15.950Z,3.08
2023-05-21T13:52:42.721Z,3.17
2023-05-21T13:55:10.576Z,3.08
2023-05-21T13:57:37.271Z,3.20
2023-05-21T14:00:04.942Z,3.30
2023-05-21T14:02:31.684Z,3.67
2023-05-21T14:04:58.381Z,3.97
2023-05-21T14:07:25.056Z,3.85
2023-05-21T14:09:52.436Z,4.00
2023-05-21T14:12:19.185Z,4.20
2023-05-21T14:14:46.123Z,4.15
2023-05-21T14:17:12.750Z,4.07
2023-05-21T14:19:39.418Z,4.43
2023-05-21T14:22:06.232Z,4.38
2023-05-21T14:24:32.989Z,4.30
2023-05-21T14:26:59.613Z,4.65
2023-05-21T14:29:26.256Z,4.40
2023-05-21T14:31:52.932Z,3.83
2023-05-21T14:34:19.645Z,4.30
2023-05-21T14:36:46.277Z,4.40
2023-05-21T14:39:12.997Z,4.75
2023-05-21T14:41:39.926Z,6.80
2023-05-21T14:44:06.802Z,5.07
2023-05-21T14:46:40.788Z,4.60
2023-05-21T14:49:07.573Z,4.90
2023-05-21T14:51:34.448Z,4.70
2023-05-21T14:54:01.376Z,5.13
2023-05-21T14:56:28.290Z,5.00
2023-05-21T14:58:55.249Z,4.82
2023-05-21T15:01:22.170Z,4.35
2023-05-21T15:03:49.244Z,3.90
2023-05-21T15:06:16.127Z,4.93
2023-05-21T15:08:42.832Z,4.20
2023-05-21T15:11:10.177Z,4.38
2023-05-21T15:13:37.016Z,3.90
2023-05-21T15:16:04.034Z,4.05
2023-05-21T15:18:30.666Z,3.88
2023-05-21T15:20:58.293Z,3.25
2023-05-21T15:23:26.495Z,3.80
2023-05-21T15:25:53.265Z,4.03
2023-05-21T15:28:19.948Z,4.05
2023-05-21T15:30:46.578Z,4.53
2023-05-21T15:33:13.195Z,4.10
2023-05-21T15:35:40.091Z,4.22
2023-05-21T15:38:07.051Z,4.05
2023-05-21T15:40:35.663Z,4.00
2023-05-21T15:43:02.429Z,4.55
2023-05-21T15:45:31.899Z,4.00
2023-05-21T15:47:58.583Z,4.30
2023-05-21T15:50:28.251Z,3.85
2023-05-21T15:52:56.942Z,3.80
2023-05-21T15:55:23.641Z,3.67
2023-05-21T15:57:50.320Z,4.00
2023-05-21T16:00:17.015Z,4.38
2023-05-21T16:02:43.795Z,4.38
2023-05-21T16:05:10.618Z,4.22
2023-05-21T16:07:38.358Z,4.47
2023-05-21T16:10:06.341Z,4.63
2023-05-21T16:12:33.051Z,4.40
2023-05-21T16:14:59.733Z,4.53
2023-05-21T16:17:28.378Z,4.22
2023-05-21T16:19:55.057Z,4.05
2023-05-21T16:22:24.680Z,4.05
2023-05-21T16:24:51.334Z,5.85
2023-05-21T16:27:18.159Z,4.28
2023-05-21T16:29:44.944Z,4.95
2023-05-21T16:32:13.837Z,4.70
2023-05-21T16:34:40.861Z,4.60
2023-05-21T16:37:09.755Z,4.55
2023-05-21T16:39:37.088Z,3.92
2023-05-21T16:42:04.005Z,4.65
2023-05-21T16:44:32.066Z,4.97
2023-05-21T16:47:00.078Z,4.57
2023-05-21T16:49:27.527Z,4.82
2023-05-21T16:51:54.326Z,5.15
2023-05-21T16:54:21.183Z,5.22
2023-05-21T16:56:47.797Z,5.18
2023-05-21T16:59:14.395Z,5.25
2023-05-21T17:01:41.092Z,5.90
2023-05-21T17:04:07.865Z,5.40
2023-05-21T17:06:35.021Z,6.75
2023-05-21T17:09:02.421Z,5.03
2023-05-21T17:11:30.786Z,4.82
2023-05-21T17:13:57.435Z,5.15
2023-05-21T17:16:25.072Z,5.53
2023-05-21T17:18:52.054Z,6.25
2023-05-21T17:21:19.451Z,6.30
2023-05-21T17:23:47.858Z,6.60
2023-05-21T17:26:14.587Z,5.97
2023-05-21T17:28:41.261Z,6.28
2023-05-21T17:31:08.988Z,6.18
2023-05-21T17:33:37.380Z,6.05
2023-05-21T17:36:04.284Z,5.80
2023-05-21T17:38:31.021Z,6.25
2023-05-21T17:41:03.559Z,6.10
2023-05-21T17:43:32.033Z,6.00
2023-05-21T17:45:58.819Z,6.60
2023-05-21T17:48:25.853Z,6.43
2023-05-21T17:50:54.759Z,7.03
2023-05-21T17:53:22.038Z,6.57
2023-05-21T17:55:48.654Z,6.10
2023-05-21T17:58:15.778Z,8.02
2023-05-21T18:00:42.443Z,7.28
2023-05-21T18:03:09.088Z,6.70
2023-05-21T18:05:36.544Z,6.68
2023-05-21T18:08:05.850Z,6.25
2023-05-21T18:10:32.511Z,7.00
2023-05-21T18:12:59.175Z,7.35
2023-05-21T18:15:25.831Z,7.28
2023-05-21T18:17:52.576Z,7.00
2023-05-21T18:20:19.367Z,9.18
2023-05-21T18:22:46.042Z,7.15
2023-05-21T18:25:13.277Z,6.57
2023-05-21T18:27:42.126Z,7.00
2023-05-21T18:30:09.269Z,6.60
2023-05-21T18:32:38.913Z,7.10
2023-05-21T18:35:08.230Z,7.78
2023-05-21T18:37:37.548Z,6.88
2023-05-21T18:40:05.999Z,6.35
2023-05-21T18:42:32.695Z,6.47
2023-05-21T18:45:06.360Z,7.10
2023-05-21T18:47:33.087Z,7.00
2023-05-21T18:50:00.059Z,7.45
2023-05-21T18:52:26.726Z,7.45
2023-05-21T18:54:54.397Z,7.50
2023-05-21T18:57:21.069Z,7.05
2023-05-21T18:59:48.272Z,7.15
2023-05-21T19:02:14.988Z,7.15
2023-05-21T19:04:41.694Z,8.32
2023-05-21T19:07:10.934Z,7.95
2023-05-21T19:09:37.753Z,8.50
2023-05-21T19:12:04.734Z,8.05
2023-05-21T19:14:31.413Z,7.93
2023-05-21T19:16:58.148Z,7.72
2023-05-21T19:19:24.824Z,7.72
2023-05-21T19:21:52.899Z,7.18
2023-05-21T19:24:19.611Z,7.60
2023-05-21T19:26:46.322Z,11.45
2023-05-21T19:29:12.974Z,8.38
2023-05-21T19:31:39.778Z,8.55
2023-05-21T19:34:10.882Z,7.10
2023-05-21T19:36:51.558Z,7.30
2023-05-21T19:39:20.025Z,7.93
2023-05-21T19:41:46.771Z,7.97
2023-05-21T19:44:13.434Z,7.72
2023-05-21T19:46:40.191Z,7.45
2023-05-21T19:49:06.966Z,6.95
2023-05-21T19:51:33.710Z,7.25
2023-05-21T19:54:00.311Z,7.25
2023-05-21T19:56:26.960Z,6.53
2023-05-21T19:58:53.618Z,7.32
2023-05-21T20:01:21.787Z,6.93
2023-05-21T20:03:49.673Z,8.10
2023-05-21T20:06:18.996Z,8.05
2023-05-21T20:08:45.853Z,7.95
2023-05-21T20:11:12.625Z,8.63
2023-05-21T20:13:40.753Z,8.10
2023-05-21T20:16:07.607Z,7.80
2023-05-21T20:18:36.668Z,7.78
2023-05-21T20:21:06.449Z,8.10
2023-05-21T20:23:33.192Z,8.38
2023-05-21T20:25:59.840Z,8.30
2023-05-21T20:28:26.487Z,8.43
2023-05-21T20:30:57.643Z,8.55
2023-05-21T20:33:25.603Z,8.20
2023-05-21T20:35:52.316Z,8.07
2023-05-21T20:38:21.088Z,8.60
2023-05-21T20:40:48.355Z,8.15
2023-05-21T20:43:15.336Z,8.18
2023-05-21T20:45:42.069Z,8.88
2023-05-21T20:48:09.994Z,7.85
2023-05-21T20:50:37.608Z,7.63
2023-05-21T20:53:04.570Z,7.35
2023-05-21T20:55:34.902Z,7.40
2023-05-21T20:58:04.792Z,7.95
2023-05-21T21:00:33.444Z,6.85
2023-05-21T21:03:03.238Z,6.45
2023-05-21T21:05:29.941Z,6.95
2023-05-21T21:07:56.742Z,7.63
2023-05-21T21:10:23.364Z,8.32
2023-05-21T21:12:50.106Z,6.35
2023-05-21T21:15:16.919Z,6.88
2023-05-21T21:17:43.730Z,7.07
2023-05-21T21:20:12.848Z,6.70
2023-05-21T21:22:39.780Z,6.85
2023-05-21T21:25:06.749Z,7.05
2023-05-21T21:27:34.628Z,6.07
2023-05-21T21:30:01.339Z,5.60
2023-05-21T21:32:28.190Z,5.55
2023-05-21T21:34:54.807Z,5.95
2023-05-21T21:37:21.446Z,7.05
2023-05-21T21:39:48.112Z,7.95
2023-05-21T21:42:15.015Z,8.88
2023-05-21T21:44:42.291Z,7.78
2023-05-21T21:47:08.959Z,8.15
2023-05-21T21:49:35.726Z,7.53
2023-05-21T21:52:02.613Z,7.40
2023-05-21T21:54:29.353Z,6.13
2023-05-21T21:56:55.990Z,5.63
2023-05-21T21:59:22.704Z,5.20
2023-05-21T22:01:49.793Z,5.15
2023-05-21T22:04:16.686Z,5.25
2023-05-21T22:06:45.403Z,5.70
2023-05-21T22:09:12.785Z,4.95
2023-05-21T22:11:39.726Z,5.15
2023-05-21T22:14:06.518Z,5.63
2023-05-21T22:16:34.088Z,5.47
2023-05-21T22:19:01.396Z,6.30
2023-05-21T22:21:29.393Z,5.82
2023-05-21T22:23:56.358Z,5.80
2023-05-21T22:26:23.364Z,6.35
2023-05-21T22:28:50.581Z,5.85
2023-05-21T22:31:17.587Z,5.80
2023-05-21T22:33:44.316Z,4.90
2023-05-21T22:36:11.094Z,5.22
2023-05-21T22:38:37.961Z,4.45
2023-05-21T22:41:08.669Z,4.47
2023-05-21T22:43:35.659Z,5.32
2023-05-21T22:46:02.469Z,5.57
2023-05-21T22:48:32.189Z,7.15
2023-05-21T22:51:02.007Z,5.68
2023-05-21T22:53:28.689Z,6.53
2023-05-21T22:55:55.311Z,5.72
2023-05-21T22:58:21.920Z,6.03
2023-05-21T23:00:48.612Z,6.10
2023-05-21T23:03:18.092Z,5.18
2023-05-21T23:05:45.543Z,5.20
2023-05-21T23:08:12.670Z,5.47
2023-05-21T23:10:39.614Z,5.03
2023-05-21T23:13:06.539Z,5.00
2023-05-21T23:15:33.813Z,5.63
2023-05-21T23:18:00.648Z,6.28
2023-05-21T23:20:27.821Z,5.82
2023-05-21T23:22:54.461Z,5.10
2023-05-21T23:25:21.243Z,5.55
2023-05-21T23:27:47.923Z,5.97
2023-05-21T23:30:14.729Z,6.38
2023-05-21T23:32:41.432Z,6.05
2023-05-21T23:35:09.440Z,6.72
2023-05-21T23:37:36.190Z,7.10
2023-05-21T23:40:03.042Z,7.45
2023-05-21T23:42:29.778Z,7.28
2023-05-21T23:44:56.436Z,7.72
2023-05-21T23:47:25.741Z,7.35
2023-05-21T23:49:52.647Z,6.55
2023-05-21T23:52:19.454Z,7.50
2023-05-21T23:54:46.117Z,6.40
2023-05-21T23:57:13.377Z,6.63
2023-05-21T23:59:40.055Z,5.35
